sensor_id;sensor_type;location;lat;lon;timestamp;P1;durP1;ratioP1;P2;durP2;ratioP2
8642;SDS011;4359;49.358;11.256;2024-02-14T00:00:10;23.03;;;13.10;;
8642;SDS011;4359;49.358;11.256;2024-02-14T00:02:48;22.83;;;12.90;;
8642;SDS011;4359;49.358;11.256;2024-02-14T00:05:14;21.90;;;12.10;;
8642;SDS011;4359;49.358;11.256;2024-02-14T00:07:40;22.73;;;13.43;;
8642;SDS011;4359;49.358;11.256;2024-02-14T00:12:32;29.30;;;16.07;;
8642;SDS011;4359;49.358;11.256;2024-02-14T00:14:59;38.00;;;19.20;;
8642;SDS011;4359;49.358;11.256;2024-02-14T00:19:50;32.53;;;14.47;;
8642;SDS011;4359;49.358;11.256;2024-02-14T00:22:16;29.03;;;14.40;;
8642;SDS011;4359;49.358;11.256;2024-02-14T00:27:08;24.50;;;14.00;;
8642;SDS011;4359;49.358;11.256;2024-02-14T00:31:59;20.30;;;11.90;;
8642;SDS011;4359;49.358;11.256;2024-02-14T00:34:26;24.73;;;13.67;;
8642;SDS011;4359;49.358;11.256;2024-02-14T00:39:17;19.83;;;12.10;;
8642;SDS011;4359;49.358;11.256;2024-02-14T00:44:08;21.33;;;11.80;;
8642;SDS011;4359;49.358;11.256;2024-02-14T00:46:34;20.47;;;12.00;;
8642;SDS011;4359;49.358;11.256;2024-02-14T00:51:25;19.70;;;11.73;;
8642;SDS011;4359;49.358;11.256;2024-02-14T00:53:51;24.70;;;12.43;;
8642;SDS011;4359;49.358;11.256;2024-02-14T00:56:17;19.33;;;12.30;;
8642;SDS011;4359;49.358;11.256;2024-02-14T01:01:08;22.07;;;10.97;;
8642;SDS011;4359;49.358;11.256;2024-02-14T01:03:34;25.53;;;11.60;;
8642;SDS011;4359;49.358;11.256;2024-02-14T01:08:25;21.10;;;11.40;;
8642;SDS011;4359;49.358;11.256;2024-02-14T01:13:19;23.53;;;12.10;;
8642;SDS011;4359;49.358;11.256;2024-02-14T01:15:45;23.97;;;13.00;;
8642;SDS011;4359;49.358;11.256;2024-02-14T01:20:36;25.67;;;12.13;;
8642;SDS011;4359;49.358;11.256;2024-02-14T01:25:28;20.97;;;11.97;;
8642;SDS011;4359;49.358;11.256;2024-02-14T01:27:53;36.37;;;18.10;;
8642;SDS011;4359;49.358;11.256;2024-02-14T01:32:45;22.03;;;12.87;;
8642;SDS011;4359;49.358;11.256;2024-02-14T01:35:10;22.03;;;12.87;;
8642;SDS011;4359;49.358;11.256;2024-02-14T01:40:01;25.63;;;12.77;;
8642;SDS011;4359;49.358;11.256;2024-02-14T01:42:28;23.70;;;12.40;;
8642;SDS011;4359;49.358;11.256;2024-02-14T01:47:22;25.27;;;12.77;;
8642;SDS011;4359;49.358;11.256;2024-02-14T01:52:13;24.50;;;12.20;;
8642;SDS011;4359;49.358;11.256;2024-02-14T01:57:05;20.23;;;11.43;;
8642;SDS011;4359;49.358;11.256;2024-02-14T01:59:33;23.60;;;11.47;;
8642;SDS011;4359;49.358;11.256;2024-02-14T02:02:02;19.20;;;11.73;;
8642;SDS011;4359;49.358;11.256;2024-02-14T02:04:32;24.13;;;12.27;;
8642;SDS011;4359;49.358;11.256;2024-02-14T02:09:23;23.30;;;12.00;;
8642;SDS011;4359;49.358;11.256;2024-02-14T02:14:15;24.13;;;12.43;;
8642;SDS011;4359;49.358;11.256;2024-02-14T02:16:41;20.50;;;11.63;;
8642;SDS011;4359;49.358;11.256;2024-02-14T02:24:03;20.53;;;11.70;;
8642;SDS011;4359;49.358;11.256;2024-02-14T02:28:54;17.60;;;11.03;;
8642;SDS011;4359;49.358;11.256;2024-02-14T02:31:20;117.30;;;66.27;;
8642;SDS011;4359;49.358;11.256;2024-02-14T02:33:47;137.10;;;61.83;;
8642;SDS011;4359;49.358;11.256;2024-02-14T02:38:41;52.67;;;22.80;;
8642;SDS011;4359;49.358;11.256;2024-02-14T02:43:32;19.20;;;11.33;;
8642;SDS011;4359;49.358;11.256;2024-02-14T02:45:59;25.83;;;12.97;;
8642;SDS011;4359;49.358;11.256;2024-02-14T02:48:25;23.23;;;12.47;;
8642;SDS011;4359;49.358;11.256;2024-02-14T02:53:17;21.80;;;11.70;;
8642;SDS011;4359;49.358;11.256;2024-02-14T02:55:43;18.53;;;11.70;;
8642;SDS011;4359;49.358;11.256;2024-02-14T03:00:34;18.77;;;11.37;;
8642;SDS011;4359;49.358;11.256;2024-02-14T03:03:00;18.80;;;11.50;;
8642;SDS011;4359;49.358;11.256;2024-02-14T03:05:27;24.03;;;11.93;;
8642;SDS011;4359;49.358;11.256;2024-02-14T03:07:56;20.93;;;11.63;;
8642;SDS011;4359;49.358;11.256;2024-02-14T03:10:23;18.83;;;11.57;;
8642;SDS011;4359;49.358;11.256;2024-02-14T03:12:50;19.33;;;11.93;;
8642;SDS011;4359;49.358;11.256;2024-02-14T03:17:42;22.83;;;11.87;;
8642;SDS011;4359;49.358;11.256;2024-02-14T03:22:40;22.33;;;12.03;;
8642;SDS011;4359;49.358;11.256;2024-02-14T03:25:21;29.40;;;14.60;;
8642;SDS011;4359;49.358;11.256;2024-02-14T03:27:48;29.10;;;14.98;;
8642;SDS011;4359;49.358;11.256;2024-02-14T03:30:18;27.93;;;14.13;;
8642;SDS011;4359;49.358;11.256;2024-02-14T03:32:47;21.70;;;12.43;;
8642;SDS011;4359;49.358;11.256;2024-02-14T03:37:38;31.63;;;16.17;;
8642;SDS011;4359;49.358;11.256;2024-02-14T03:40:09;22.47;;;13.57;;
8642;SDS011;4359;49.358;11.256;2024-02-14T03:42:35;20.33;;;11.33;;
8642;SDS011;4359;49.358;11.256;2024-02-14T03:47:33;20.67;;;9.90;;
8642;SDS011;4359;49.358;11.256;2024-02-14T03:50:00;21.40;;;12.17;;
8642;SDS011;4359;49.358;11.256;2024-02-14T03:52:27;20.57;;;10.60;;
8642;SDS011;4359;49.358;11.256;2024-02-14T03:57:18;16.37;;;10.40;;
8642;SDS011;4359;49.358;11.256;2024-02-14T04:02:10;17.73;;;9.83;;
8642;SDS011;4359;49.358;11.256;2024-02-14T04:07:02;19.17;;;10.57;;
8642;SDS011;4359;49.358;11.256;2024-02-14T04:09:28;21.20;;;10.13;;
8642;SDS011;4359;49.358;11.256;2024-02-14T04:14:20;20.57;;;10.30;;
8642;SDS011;4359;49.358;11.256;2024-02-14T04:16:46;20.03;;;10.10;;
8642;SDS011;4359;49.358;11.256;2024-02-14T04:21:38;19.70;;;10.10;;
8642;SDS011;4359;49.358;11.256;2024-02-14T04:26:29;44.93;;;22.33;;
8642;SDS011;4359;49.358;11.256;2024-02-14T04:31:20;73.67;;;31.73;;
8642;SDS011;4359;49.358;11.256;2024-02-14T04:33:46;20.47;;;10.93;;
8642;SDS011;4359;49.358;11.256;2024-02-14T04:36:19;23.17;;;11.17;;
8642;SDS011;4359;49.358;11.256;2024-02-14T04:38:46;20.57;;;12.07;;
8642;SDS011;4359;49.358;11.256;2024-02-14T04:41:13;30.70;;;16.73;;
8642;SDS011;4359;49.358;11.256;2024-02-14T04:43:39;32.47;;;15.97;;
8642;SDS011;4359;49.358;11.256;2024-02-14T04:46:05;65.13;;;28.43;;
8642;SDS011;4359;49.358;11.256;2024-02-14T04:48:35;34.80;;;17.77;;
8642;SDS011;4359;49.358;11.256;2024-02-14T04:51:02;75.43;;;32.63;;
8642;SDS011;4359;49.358;11.256;2024-02-14T04:53:28;73.30;;;30.63;;
8642;SDS011;4359;49.358;11.256;2024-02-14T04:58:19;87.40;;;37.17;;
8642;SDS011;4359;49.358;11.256;2024-02-14T05:00:45;57.77;;;25.73;;
8642;SDS011;4359;49.358;11.256;2024-02-14T05:05:36;39.97;;;18.20;;
8642;SDS011;4359;49.358;11.256;2024-02-14T05:08:03;36.20;;;17.83;;
8642;SDS011;4359;49.358;11.256;2024-02-14T05:10:29;32.43;;;16.40;;
8642;SDS011;4359;49.358;11.256;2024-02-14T05:15:20;44.67;;;21.20;;
8642;SDS011;4359;49.358;11.256;2024-02-14T05:20:11;41.97;;;18.87;;
8642;SDS011;4359;49.358;11.256;2024-02-14T05:25:03;76.47;;;34.83;;
8642;SDS011;4359;49.358;11.256;2024-02-14T05:27:32;49.27;;;25.43;;
8642;SDS011;4359;49.358;11.256;2024-02-14T05:32:23;52.30;;;29.33;;
8642;SDS011;4359;49.358;11.256;2024-02-14T05:37:15;31.77;;;16.73;;
8642;SDS011;4359;49.358;11.256;2024-02-14T05:39:41;32.47;;;18.30;;
8642;SDS011;4359;49.358;11.256;2024-02-14T05:44:32;29.90;;;16.97;;
8642;SDS011;4359;49.358;11.256;2024-02-14T05:46:58;29.30;;;12.83;;
8642;SDS011;4359;49.358;11.256;2024-02-14T05:49:23;25.73;;;12.90;;
8642;SDS011;4359;49.358;11.256;2024-02-14T05:51:49;25.40;;;12.83;;
8642;SDS011;4359;49.358;11.256;2024-02-14T05:54:17;28.83;;;15.00;;
8642;SDS011;4359;49.358;11.256;2024-02-14T05:59:09;20.43;;;11.83;;
8642;SDS011;4359;49.358;11.256;2024-02-14T06:01:35;22.43;;;11.90;;
8642;SDS011;4359;49.358;11.256;2024-02-14T06:06:26;19.30;;;11.20;;
8642;SDS011;4359;49.358;11.256;2024-02-14T06:08:52;26.60;;;11.57;;
8642;SDS011;4359;49.358;11.256;2024-02-14T06:11:17;18.17;;;11.53;;
8642;SDS011;4359;49.358;11.256;2024-02-14T06:13:46;21.10;;;13.17;;
8642;SDS011;4359;49.358;11.256;2024-02-14T06:16:12;24.53;;;13.90;;
8642;SDS011;4359;49.358;11.256;2024-02-14T06:21:05;19.05;;;10.10;;
8642;SDS011;4359;49.358;11.256;2024-02-14T06:23:30;22.60;;;13.80;;
8642;SDS011;4359;49.358;11.256;2024-02-14T06:25:56;21.30;;;12.23;;
8642;SDS011;4359;49.358;11.256;2024-02-14T06:28:22;28.53;;;14.27;;
8642;SDS011;4359;49.358;11.256;2024-02-14T06:33:14;60.33;;;26.47;;
8642;SDS011;4359;49.358;11.256;2024-02-14T06:38:05;38.05;;;17.08;;
8642;SDS011;4359;49.358;11.256;2024-02-14T06:40:31;20.87;;;12.23;;
8642;SDS011;4359;49.358;11.256;2024-02-14T06:42:57;36.28;;;18.77;;
8642;SDS011;4359;49.358;11.256;2024-02-14T06:45:25;63.53;;;27.60;;
8642;SDS011;4359;49.358;11.256;2024-02-14T06:47:51;70.20;;;33.57;;
8642;SDS011;4359;49.358;11.256;2024-02-14T06:52:42;42.92;;;22.88;;
8642;SDS011;4359;49.358;11.256;2024-02-14T06:55:08;35.23;;;20.03;;
8642;SDS011;4359;49.358;11.256;2024-02-14T06:59:59;23.60;;;12.83;;
8642;SDS011;4359;49.358;11.256;2024-02-14T07:02:24;27.48;;;15.63;;
8642;SDS011;4359;49.358;11.256;2024-02-14T07:04:53;21.85;;;13.23;;
8642;SDS011;4359;49.358;11.256;2024-02-14T07:07:19;22.55;;;13.93;;
8642;SDS011;4359;49.358;11.256;2024-02-14T07:12:11;21.02;;;13.32;;
8642;SDS011;4359;49.358;11.256;2024-02-14T07:17:02;23.25;;;13.68;;
8642;SDS011;4359;49.358;11.256;2024-02-14T07:19:28;26.85;;;17.33;;
8642;SDS011;4359;49.358;11.256;2024-02-14T07:24:19;26.95;;;15.68;;
8642;SDS011;4359;49.358;11.256;2024-02-14T07:29:11;27.10;;;14.98;;
8642;SDS011;4359;49.358;11.256;2024-02-14T07:34:02;22.90;;;13.55;;
8642;SDS011;4359;49.358;11.256;2024-02-14T07:36:28;21.70;;;12.88;;
8642;SDS011;4359;49.358;11.256;2024-02-14T07:38:54;21.05;;;12.30;;
8642;SDS011;4359;49.358;11.256;2024-02-14T07:43:46;19.55;;;12.07;;
8642;SDS011;4359;49.358;11.256;2024-02-14T07:48:41;22.02;;;13.23;;
8642;SDS011;4359;49.358;11.256;2024-02-14T07:53:33;22.63;;;13.07;;
8642;SDS011;4359;49.358;11.256;2024-02-14T07:58:24;24.40;;;13.05;;
8642;SDS011;4359;49.358;11.256;2024-02-14T08:03:15;23.50;;;13.55;;
8642;SDS011;4359;49.358;11.256;2024-02-14T08:05:41;35.65;;;18.85;;
8642;SDS011;4359;49.358;11.256;2024-02-14T08:08:07;42.30;;;24.52;;
8642;SDS011;4359;49.358;11.256;2024-02-14T08:12:59;36.63;;;21.48;;
8642;SDS011;4359;49.358;11.256;2024-02-14T08:15:24;30.98;;;18.52;;
8642;SDS011;4359;49.358;11.256;2024-02-14T08:20:19;19.67;;;12.65;;
8642;SDS011;4359;49.358;11.256;2024-02-14T08:25:10;20.00;;;12.88;;
8642;SDS011;4359;49.358;11.256;2024-02-14T08:27:36;21.10;;;11.88;;
8642;SDS011;4359;49.358;11.256;2024-02-14T08:32:29;22.00;;;12.25;;
8642;SDS011;4359;49.358;11.256;2024-02-14T08:37:21;17.33;;;11.30;;
8642;SDS011;4359;49.358;11.256;2024-02-14T08:42:12;16.77;;;10.10;;
8642;SDS011;4359;49.358;11.256;2024-02-14T08:47:03;15.50;;;9.00;;
8642;SDS011;4359;49.358;11.256;2024-02-14T08:49:30;18.65;;;9.25;;
8642;SDS011;4359;49.358;11.256;2024-02-14T08:54:21;14.13;;;8.85;;
8642;SDS011;4359;49.358;11.256;2024-02-14T08:56:48;14.52;;;8.18;;
8642;SDS011;4359;49.358;11.256;2024-02-14T09:01:39;16.30;;;7.70;;
8642;SDS011;4359;49.358;11.256;2024-02-14T09:04:05;11.75;;;7.13;;
8642;SDS011;4359;49.358;11.256;2024-02-14T09:06:31;13.63;;;6.40;;
8642;SDS011;4359;49.358;11.256;2024-02-14T09:08:58;11.70;;;6.63;;
8642;SDS011;4359;49.358;11.256;2024-02-14T09:11:23;10.05;;;6.05;;
8642;SDS011;4359;49.358;11.256;2024-02-14T09:13:50;12.35;;;6.63;;
8642;SDS011;4359;49.358;11.256;2024-02-14T09:16:19;13.48;;;7.55;;
8642;SDS011;4359;49.358;11.256;2024-02-14T09:18:47;15.73;;;7.65;;
8642;SDS011;4359;49.358;11.256;2024-02-14T09:21:12;16.20;;;7.53;;
8642;SDS011;4359;49.358;11.256;2024-02-14T09:23:40;17.10;;;7.93;;
8642;SDS011;4359;49.358;11.256;2024-02-14T09:26:06;15.43;;;7.20;;
8642;SDS011;4359;49.358;11.256;2024-02-14T09:28:33;10.98;;;5.45;;
8642;SDS011;4359;49.358;11.256;2024-02-14T09:31:00;9.35;;;5.20;;
8642;SDS011;4359;49.358;11.256;2024-02-14T09:33:26;8.40;;;4.80;;
8642;SDS011;4359;49.358;11.256;2024-02-14T09:35:52;9.20;;;4.32;;
8642;SDS011;4359;49.358;11.256;2024-02-14T09:38:18;8.57;;;4.18;;
8642;SDS011;4359;49.358;11.256;2024-02-14T09:40:43;11.18;;;4.57;;
8642;SDS011;4359;49.358;11.256;2024-02-14T09:43:12;8.98;;;3.72;;
8642;SDS011;4359;49.358;11.256;2024-02-14T09:45:42;8.70;;;4.20;;
8642;SDS011;4359;49.358;11.256;2024-02-14T09:48:09;8.02;;;3.97;;
8642;SDS011;4359;49.358;11.256;2024-02-14T09:50:37;9.70;;;4.03;;
8642;SDS011;4359;49.358;11.256;2024-02-14T09:53:04;11.10;;;4.28;;
8642;SDS011;4359;49.358;11.256;2024-02-14T09:55:30;6.93;;;3.50;;
8642;SDS011;4359;49.358;11.256;2024-02-14T09:57:55;8.38;;;3.63;;
8642;SDS011;4359;49.358;11.256;2024-02-14T10:00:23;9.95;;;3.53;;
8642;SDS011;4359;49.358;11.256;2024-02-14T10:02:49;7.40;;;4.45;;
8642;SDS011;4359;49.358;11.256;2024-02-14T10:05:15;10.25;;;4.07;;
8642;SDS011;4359;49.358;11.256;2024-02-14T10:07:41;8.63;;;3.92;;
8642;SDS011;4359;49.358;11.256;2024-02-14T10:10:07;7.78;;;3.78;;
8642;SDS011;4359;49.358;11.256;2024-02-14T10:12:33;8.75;;;3.65;;
8642;SDS011;4359;49.358;11.256;2024-02-14T10:14:59;8.02;;;3.75;;
8642;SDS011;4359;49.358;11.256;2024-02-14T10:17:26;12.43;;;3.72;;
8642;SDS011;4359;49.358;11.256;2024-02-14T10:19:55;10.32;;;3.78;;
8642;SDS011;4359;49.358;11.256;2024-02-14T10:22:22;8.80;;;3.17;;
8642;SDS011;4359;49.358;11.256;2024-02-14T10:24:48;8.93;;;3.17;;
8642;SDS011;4359;49.358;11.256;2024-02-14T10:27:15;7.30;;;2.83;;
8642;SDS011;4359;49.358;11.256;2024-02-14T10:29:40;7.22;;;3.45;;
8642;SDS011;4359;49.358;11.256;2024-02-14T10:32:07;6.25;;;3.22;;
8642;SDS011;4359;49.358;11.256;2024-02-14T10:34:33;7.60;;;3.17;;
8642;SDS011;4359;49.358;11.256;2024-02-14T10:36:58;7.65;;;3.05;;
8642;SDS011;4359;49.358;11.256;2024-02-14T10:39:26;9.93;;;3.35;;
8642;SDS011;4359;49.358;11.256;2024-02-14T10:41:52;6.90;;;2.97;;
8642;SDS011;4359;49.358;11.256;2024-02-14T10:44:17;6.40;;;3.15;;
8642;SDS011;4359;49.358;11.256;2024-02-14T10:46:44;7.55;;;3.20;;
8642;SDS011;4359;49.358;11.256;2024-02-14T10:49:11;9.77;;;3.22;;
8642;SDS011;4359;49.358;11.256;2024-02-14T10:51:39;7.70;;;3.20;;
8642;SDS011;4359;49.358;11.256;2024-02-14T10:54:09;8.18;;;2.78;;
8642;SDS011;4359;49.358;11.256;2024-02-14T10:56:40;7.20;;;2.80;;
8642;SDS011;4359;49.358;11.256;2024-02-14T10:59:09;7.15;;;2.72;;
8642;SDS011;4359;49.358;11.256;2024-02-14T11:01:38;10.32;;;3.50;;
8642;SDS011;4359;49.358;11.256;2024-02-14T11:04:06;5.80;;;2.58;;
8642;SDS011;4359;49.358;11.256;2024-02-14T11:06:32;4.95;;;2.40;;
8642;SDS011;4359;49.358;11.256;2024-02-14T11:11:37;4.57;;;2.33;;
8642;SDS011;4359;49.358;11.256;2024-02-14T11:14:05;7.25;;;2.40;;
8642;SDS011;4359;49.358;11.256;2024-02-14T11:16:31;5.85;;;2.33;;
8642;SDS011;4359;49.358;11.256;2024-02-14T11:21:44;5.93;;;2.17;;
8642;SDS011;4359;49.358;11.256;2024-02-14T11:24:12;6.78;;;2.45;;
8642;SDS011;4359;49.358;11.256;2024-02-14T11:26:46;8.32;;;2.35;;
8642;SDS011;4359;49.358;11.256;2024-02-14T11:29:14;6.07;;;2.72;;
8642;SDS011;4359;49.358;11.256;2024-02-14T11:31:41;6.82;;;2.45;;
8642;SDS011;4359;49.358;11.256;2024-02-14T11:34:08;7.38;;;2.17;;
8642;SDS011;4359;49.358;11.256;2024-02-14T11:36:36;9.63;;;2.40;;
8642;SDS011;4359;49.358;11.256;2024-02-14T11:39:05;5.70;;;2.20;;
8642;SDS011;4359;49.358;11.256;2024-02-14T11:41:34;5.05;;;1.70;;
8642;SDS011;4359;49.358;11.256;2024-02-14T11:44:06;7.03;;;2.13;;
8642;SDS011;4359;49.358;11.256;2024-02-14T11:46:32;5.50;;;2.13;;
8642;SDS011;4359;49.358;11.256;2024-02-14T11:48:59;5.38;;;2.13;;
8642;SDS011;4359;49.358;11.256;2024-02-14T11:51:30;4.88;;;1.90;;
8642;SDS011;4359;49.358;11.256;2024-02-14T11:53:57;4.68;;;1.60;;
8642;SDS011;4359;49.358;11.256;2024-02-14T11:56:33;4.47;;;1.90;;
8642;SDS011;4359;49.358;11.256;2024-02-14T11:59:01;9.45;;;2.05;;
8642;SDS011;4359;49.358;11.256;2024-02-14T12:01:34;4.00;;;1.95;;
8642;SDS011;4359;49.358;11.256;2024-02-14T12:04:02;4.53;;;1.70;;
8642;SDS011;4359;49.358;11.256;2024-02-14T12:06:33;6.00;;;1.90;;
8642;SDS011;4359;49.358;11.256;2024-02-14T12:09:00;5.82;;;1.83;;
8642;SDS011;4359;49.358;11.256;2024-02-14T12:11:30;6.50;;;1.80;;
8642;SDS011;4359;49.358;11.256;2024-02-14T12:14:02;3.17;;;1.80;;
8642;SDS011;4359;49.358;11.256;2024-02-14T12:16:28;5.55;;;1.92;;
8642;SDS011;4359;49.358;11.256;2024-02-14T12:19:03;6.35;;;1.95;;
8642;SDS011;4359;49.358;11.256;2024-02-14T12:21:40;4.82;;;1.70;;
8642;SDS011;4359;49.358;11.256;2024-02-14T12:24:07;5.22;;;1.55;;
8642;SDS011;4359;49.358;11.256;2024-02-14T12:26:34;6.22;;;1.75;;
8642;SDS011;4359;49.358;11.256;2024-02-14T12:29:02;3.30;;;1.48;;
8642;SDS011;4359;49.358;11.256;2024-02-14T12:31:32;4.85;;;1.33;;
8642;SDS011;4359;49.358;11.256;2024-02-14T12:33:59;4.50;;;1.30;;
8642;SDS011;4359;49.358;11.256;2024-02-14T12:36:27;4.65;;;1.30;;
8642;SDS011;4359;49.358;11.256;2024-02-14T12:38:54;4.85;;;1.42;;
8642;SDS011;4359;49.358;11.256;2024-02-14T12:41:20;5.15;;;1.40;;
8642;SDS011;4359;49.358;11.256;2024-02-14T12:43:48;5.28;;;1.60;;
8642;SDS011;4359;49.358;11.256;2024-02-14T12:46:14;5.05;;;1.60;;
8642;SDS011;4359;49.358;11.256;2024-02-14T12:48:40;4.55;;;1.40;;
8642;SDS011;4359;49.358;11.256;2024-02-14T12:51:06;6.75;;;1.83;;
8642;SDS011;4359;49.358;11.256;2024-02-14T12:53:33;7.13;;;1.48;;
8642;SDS011;4359;49.358;11.256;2024-02-14T12:55:59;4.60;;;1.55;;
8642;SDS011;4359;49.358;11.256;2024-02-14T12:58:24;6.00;;;1.52;;
8642;SDS011;4359;49.358;11.256;2024-02-14T13:00:50;3.08;;;1.30;;
8642;SDS011;4359;49.358;11.256;2024-02-14T13:03:16;6.82;;;1.60;;
8642;SDS011;4359;49.358;11.256;2024-02-14T13:05:42;4.68;;;1.50;;
8642;SDS011;4359;49.358;11.256;2024-02-14T13:08:07;3.55;;;1.35;;
8642;SDS011;4359;49.358;11.256;2024-02-14T13:10:37;3.60;;;1.40;;
8642;SDS011;4359;49.358;11.256;2024-02-14T13:13:03;3.55;;;1.52;;
8642;SDS011;4359;49.358;11.256;2024-02-14T13:15:29;5.63;;;1.70;;
8642;SDS011;4359;49.358;11.256;2024-02-14T13:17:55;5.25;;;1.33;;
8642;SDS011;4359;49.358;11.256;2024-02-14T13:20:23;4.05;;;1.45;;
8642;SDS011;4359;49.358;11.256;2024-02-14T13:22:49;3.58;;;1.52;;
8642;SDS011;4359;49.358;11.256;2024-02-14T13:25:15;3.35;;;1.48;;
8642;SDS011;4359;49.358;11.256;2024-02-14T13:27:41;4.18;;;1.52;;
8642;SDS011;4359;49.358;11.256;2024-02-14T13:30:08;3.03;;;1.50;;
8642;SDS011;4359;49.358;11.256;2024-02-14T13:32:33;3.80;;;1.67;;
8642;SDS011;4359;49.358;11.256;2024-02-14T13:34:59;4.30;;;1.50;;
8642;SDS011;4359;49.358;11.256;2024-02-14T13:37:25;4.13;;;1.30;;
8642;SDS011;4359;49.358;11.256;2024-02-14T13:39:51;4.63;;;1.50;;
8642;SDS011;4359;49.358;11.256;2024-02-14T13:42:17;6.32;;;1.42;;
8642;SDS011;4359;49.358;11.256;2024-02-14T13:44:42;3.20;;;1.10;;
8642;SDS011;4359;49.358;11.256;2024-02-14T13:47:09;5.43;;;1.23;;
8642;SDS011;4359;49.358;11.256;2024-02-14T13:49:35;2.83;;;1.08;;
8642;SDS011;4359;49.358;11.256;2024-02-14T13:52:01;3.20;;;1.10;;
8642;SDS011;4359;49.358;11.256;2024-02-14T13:54:26;6.60;;;1.75;;
8642;SDS011;4359;49.358;11.256;2024-02-14T13:56:52;3.45;;;1.45;;
8642;SDS011;4359;49.358;11.256;2024-02-14T13:59:18;5.68;;;1.67;;
8642;SDS011;4359;49.358;11.256;2024-02-14T14:01:44;4.63;;;1.38;;
8642;SDS011;4359;49.358;11.256;2024-02-14T14:06:41;5.30;;;1.23;;
8642;SDS011;4359;49.358;11.256;2024-02-14T14:09:07;2.70;;;1.15;;
8642;SDS011;4359;49.358;11.256;2024-02-14T14:11:33;4.55;;;1.15;;
8642;SDS011;4359;49.358;11.256;2024-02-14T14:13:59;10.13;;;1.27;;
8642;SDS011;4359;49.358;11.256;2024-02-14T14:16:25;3.33;;;0.90;;
8642;SDS011;4359;49.358;11.256;2024-02-14T14:18:51;3.22;;;1.20;;
8642;SDS011;4359;49.358;11.256;2024-02-14T14:21:16;5.05;;;1.45;;
8642;SDS011;4359;49.358;11.256;2024-02-14T14:23:42;5.00;;;1.20;;
8642;SDS011;4359;49.358;11.256;2024-02-14T14:26:09;2.58;;;1.13;;
8642;SDS011;4359;49.358;11.256;2024-02-14T14:28:35;2.40;;;1.20;;
8642;SDS011;4359;49.358;11.256;2024-02-14T14:31:01;4.15;;;1.50;;
8642;SDS011;4359;49.358;11.256;2024-02-14T14:33:27;2.97;;;1.20;;
8642;SDS011;4359;49.358;11.256;2024-02-14T14:35:53;4.95;;;1.17;;
8642;SDS011;4359;49.358;11.256;2024-02-14T14:38:19;3.25;;;0.90;;
8642;SDS011;4359;49.358;11.256;2024-02-14T14:40:46;2.40;;;1.27;;
8642;SDS011;4359;49.358;11.256;2024-02-14T14:43:12;2.33;;;1.00;;
8642;SDS011;4359;49.358;11.256;2024-02-14T14:45:38;2.90;;;1.00;;
8642;SDS011;4359;49.358;11.256;2024-02-14T14:48:04;7.45;;;1.10;;
8642;SDS011;4359;49.358;11.256;2024-02-14T14:50:30;4.22;;;0.82;;
8642;SDS011;4359;49.358;11.256;2024-02-14T14:52:56;2.80;;;0.90;;
8642;SDS011;4359;49.358;11.256;2024-02-14T14:55:23;4.25;;;1.02;;
8642;SDS011;4359;49.358;11.256;2024-02-14T14:57:50;3.38;;;0.88;;
8642;SDS011;4359;49.358;11.256;2024-02-14T15:00:16;3.22;;;0.90;;
8642;SDS011;4359;49.358;11.256;2024-02-14T15:02:43;6.00;;;1.35;;
8642;SDS011;4359;49.358;11.256;2024-02-14T15:05:09;2.75;;;0.88;;
8642;SDS011;4359;49.358;11.256;2024-02-14T15:07:39;3.63;;;0.90;;
8642;SDS011;4359;49.358;11.256;2024-02-14T15:10:05;2.90;;;0.95;;
8642;SDS011;4359;49.358;11.256;2024-02-14T15:12:35;3.40;;;0.98;;
8642;SDS011;4359;49.358;11.256;2024-02-14T15:15:05;2.65;;;0.90;;
8642;SDS011;4359;49.358;11.256;2024-02-14T15:17:31;3.20;;;1.35;;
8642;SDS011;4359;49.358;11.256;2024-02-14T15:19:57;3.83;;;1.08;;
8642;SDS011;4359;49.358;11.256;2024-02-14T15:22:23;2.35;;;1.00;;
8642;SDS011;4359;49.358;11.256;2024-02-14T15:24:50;2.47;;;0.95;;
8642;SDS011;4359;49.358;11.256;2024-02-14T15:27:17;3.03;;;1.00;;
8642;SDS011;4359;49.358;11.256;2024-02-14T15:29:48;2.97;;;0.88;;
8642;SDS011;4359;49.358;11.256;2024-02-14T15:32:33;2.30;;;0.80;;
8642;SDS011;4359;49.358;11.256;2024-02-14T15:35:18;1.98;;;0.70;;
8642;SDS011;4359;49.358;11.256;2024-02-14T15:37:44;2.58;;;1.00;;
8642;SDS011;4359;49.358;11.256;2024-02-14T15:40:13;3.00;;;1.00;;
8642;SDS011;4359;49.358;11.256;2024-02-14T15:42:42;2.83;;;0.80;;
8642;SDS011;4359;49.358;11.256;2024-02-14T15:45:08;4.57;;;1.10;;
8642;SDS011;4359;49.358;11.256;2024-02-14T15:47:43;3.03;;;1.20;;
8642;SDS011;4359;49.358;11.256;2024-02-14T15:50:09;5.15;;;1.45;;
8642;SDS011;4359;49.358;11.256;2024-02-14T15:52:35;2.97;;;1.00;;
8642;SDS011;4359;49.358;11.256;2024-02-14T15:55:02;4.30;;;1.38;;
8642;SDS011;4359;49.358;11.256;2024-02-14T15:57:28;5.43;;;1.13;;
8642;SDS011;4359;49.358;11.256;2024-02-14T15:59:54;2.75;;;1.00;;
8642;SDS011;4359;49.358;11.256;2024-02-14T16:02:20;2.25;;;0.85;;
8642;SDS011;4359;49.358;11.256;2024-02-14T16:04:45;4.15;;;1.00;;
8642;SDS011;4359;49.358;11.256;2024-02-14T16:07:11;3.97;;;0.90;;
8642;SDS011;4359;49.358;11.256;2024-02-14T16:09:37;2.55;;;0.90;;
8642;SDS011;4359;49.358;11.256;2024-02-14T16:12:02;3.75;;;1.23;;
8642;SDS011;4359;49.358;11.256;2024-02-14T16:14:28;4.00;;;1.38;;
8642;SDS011;4359;49.358;11.256;2024-02-14T16:16:54;3.22;;;1.20;;
8642;SDS011;4359;49.358;11.256;2024-02-14T16:19:20;3.97;;;1.30;;
8642;SDS011;4359;49.358;11.256;2024-02-14T16:21:45;2.35;;;0.90;;
8642;SDS011;4359;49.358;11.256;2024-02-14T16:24:11;8.32;;;1.23;;
8642;SDS011;4359;49.358;11.256;2024-02-14T16:26:37;2.40;;;1.10;;
8642;SDS011;4359;49.358;11.256;2024-02-14T16:29:02;3.45;;;1.17;;
8642;SDS011;4359;49.358;11.256;2024-02-14T16:31:28;4.22;;;1.05;;
8642;SDS011;4359;49.358;11.256;2024-02-14T16:33:53;4.20;;;1.40;;
8642;SDS011;4359;49.358;11.256;2024-02-14T16:36:19;4.85;;;2.15;;
8642;SDS011;4359;49.358;11.256;2024-02-14T16:38:46;5.97;;;1.60;;
8642;SDS011;4359;49.358;11.256;2024-02-14T16:41:11;5.32;;;2.00;;
8642;SDS011;4359;49.358;11.256;2024-02-14T16:43:37;6.55;;;1.55;;
8642;SDS011;4359;49.358;11.256;2024-02-14T16:46:02;5.30;;;1.90;;
8642;SDS011;4359;49.358;11.256;2024-02-14T16:48:28;7.00;;;1.90;;
8642;SDS011;4359;49.358;11.256;2024-02-14T16:50:56;7.72;;;2.80;;
8642;SDS011;4359;49.358;11.256;2024-02-14T16:53:21;6.72;;;3.20;;
8642;SDS011;4359;49.358;11.256;2024-02-14T16:55:47;4.85;;;2.63;;
8642;SDS011;4359;49.358;11.256;2024-02-14T16:58:13;6.22;;;2.55;;
8642;SDS011;4359;49.358;11.256;2024-02-14T17:00:38;4.95;;;2.60;;
8642;SDS011;4359;49.358;11.256;2024-02-14T17:03:04;4.78;;;2.70;;
8642;SDS011;4359;49.358;11.256;2024-02-14T17:05:30;6.32;;;3.40;;
8642;SDS011;4359;49.358;11.256;2024-02-14T17:07:56;17.92;;;10.35;;
8642;SDS011;4359;49.358;11.256;2024-02-14T17:10:21;75.25;;;35.83;;
8642;SDS011;4359;49.358;11.256;2024-02-14T17:12:48;58.92;;;28.67;;
8642;SDS011;4359;49.358;11.256;2024-02-14T17:15:13;58.88;;;29.65;;
8642;SDS011;4359;49.358;11.256;2024-02-14T17:17:39;49.13;;;24.77;;
8642;SDS011;4359;49.358;11.256;2024-02-14T17:20:05;36.80;;;18.40;;
8642;SDS011;4359;49.358;11.256;2024-02-14T17:22:32;48.35;;;27.45;;
8642;SDS011;4359;49.358;11.256;2024-02-14T17:24:57;47.40;;;26.95;;
8642;SDS011;4359;49.358;11.256;2024-02-14T17:27:24;28.25;;;15.98;;
8642;SDS011;4359;49.358;11.256;2024-02-14T17:29:50;18.00;;;8.90;;
8642;SDS011;4359;49.358;11.256;2024-02-14T17:32:16;13.88;;;6.70;;
8642;SDS011;4359;49.358;11.256;2024-02-14T17:34:41;13.00;;;5.45;;
8642;SDS011;4359;49.358;11.256;2024-02-14T17:37:07;9.18;;;3.20;;
8642;SDS011;4359;49.358;11.256;2024-02-14T17:39:33;8.73;;;3.35;;
8642;SDS011;4359;49.358;11.256;2024-02-14T17:42:00;5.93;;;2.50;;
8642;SDS011;4359;49.358;11.256;2024-02-14T17:44:26;8.38;;;4.30;;